静浜飛行場

2022/11/17

第6回緊急消防援助隊全国合同訓練 静岡空港・静浜飛行場 2022/11/12 sat

仕事先に出稼ぎに出ていて、週末にちょっと遠出。

RJNS 120000Z 34004KT 310V010 9999 FEW030 17/07 Q1025

20221112_rjns_100ja73aa

静岡駅に着いたのが10時前。空港行きのバスを待っていると青空にコントレール。

SKY303 RJTT-RJFK JA73AA B737-8AL

RJNS 120100Z VRB04KT 9999 FEW030 19/08 Q1025

20221112_rjns_101rjns

一時間程バスに揺られて、開港の日以来の静岡空港到着。

20221112_rjns_102rjns

静岡ドリームエアライン空港やね

20221112_rjns_103ja100f

この日と明日、静岡県下で緊急消防援助隊全国合同訓練が実施されます。

20221112_rjns_104rjns

開港の日、激混で行くことすらできなかった送迎デッキに来てみた。んー、使えない。

20221112_rjns_105rjns

これからの出発便 地方空港と思えば、ほどほど。

20221112_rjns_106rjns

FDAの売店前にデフォルメシュミレーター

20221112_rjns_107rjns

青組さんは、期間限定で札幌と沖縄に飛んでます。

20221112_rjns_108ja06fj

訓練参加の「なにわ」さんと定期便

20221112_rjns_109ja06fj

富士山ですが、頂上の雪が解けて、影富士に。

20221112_rjns_110ja06fj

FDA142 RJFK-RJNS JA06FJ ERJ-175STD

20221112_rjns_111rjns

航空局事務所。レディオ空港です。

20221112_rjns_112rjns

訓練の告知看板がありました。

20221112_rjns_113rjns

石雲院展望デッキへ

20221112_rjns_114ja100f

「なにわ」さん、こんにちわ

20221112_rjns_115rjns

太平洋も望む、高台です。

20221112_rjns_116sze

静岡VOR/DME(SZE) まもなく更新工事が始まります。

20221112_rjns_117ooe

工事中の代替 大井VOR/DME(OOE)

20221112_rjns_118h574493

予定とおりに阿修羅様(空チヌ)飛来

20221112_rjns_119h574493

57-4493 CH-47J(LR) IRUMA-HT A21

20221112_rjns_120h574493

20221112_rjns_121h574493

20221112_rjns_122h574493

20221112_rjns_123h574493

折から訓練会場にどこかの大隊が到着しました。

RJNS 120200Z VRB02KT 9999 FEW030 21/09 Q1024

20221112_rjns_124h574493

ポンプ車が載っているようなのですが・・

20221112_rjns_125ja02kb

JA02KB↓ BK-117C2 神戸市航空機動隊「KOBE-2」

20221112_rjns_126ja02kb

臨時スポットに移動しようとしたら・・

20221112_rjns_127ja02kb

誘導路を通らなかったので、草地の刈草を巻き上げて、大変なことに。

20221112_rjns_128ja100f

心配そうに見ている「なにわ」チーム

20221112_rjns_129ja02kb

おかげで、スポット#2、#3が使えなくなって、#4に駐機

20221112_rjns_130ja100f

JA100F AS365N3 大阪市消防航空隊「なにわ」

20221112_rjns_131ja06fj

折り返し出発です。

20221112_rjns_132ja06fj

FDA163 RJNS-RJCC JA06FJ ERJ-175STD

20221112_rjns_133ja06fj

20221112_rjns_134ja06fj

20221112_rjns_135ja100f

航空偵察に出かけるようです。

20221112_rjns_136ja100f

「なにわ」さんも降りた時に、草をまき散らしていて、自分で履いて行きました。

20221112_rjns_137ja100f

20221112_rjns_138ja05fj

次の到着便がハイステーション

20221112_rjns_139ja05fj

FDA144 RJFK-RJNS JA05FJ ERJ-175STD

20221112_rjns_140ja05fj

20221112_rjns_141ja05fj

20221112_rjns_142ja05fj

20221112_rjns_143ja05fj

RJNS 120300Z VRB01KT 9999 FEW030 21/09 Q1023

20221112_rjns_144ja298r

ヘリのベースとなる静浜飛行場から飛来

20221112_rjns_145ja298r

JA298R↓ BK-117C2 茨城県防災航空隊「つくば」

20221112_rjns_146ja298r

つくばヘリポートで見ていても、いつもフレンドリー

20221112_rjns_147ja90mt

JA90MT↓ AS365N3 熊本県防災消防航空隊「ひばり」

20221112_rjns_148ja90mt

今回一番遠くからの遠征かな

20221112_rjns_149ja90mt

フィンにくまモン

20221112_rjns_150ja01fd

赤に白鼻、午前中に下田で救助してきた模様

20221112_rjns_151ja01fd

JA01FD↓ AS365N3 東京消防庁航空隊「おおたか」

20221112_rjns_152h574493

チヌたんは、お帰りの模様

20221112_rjns_153ja05fj

20221112_rjns_154ja01fd

東京消防庁と入れ替え

20221112_rjns_155h574493

20221112_rjns_156h574493

57-4493↑

20221112_rjns_157h574493

20221112_rjns_158ja01fd

すぐさま給油

20221112_rjns_159ja05fj

20221112_rjns_160ja05fj

FDA133 RJNS-RJFK JA05FJ ERJ-175STD

20221112_rjns_161ja05fj

20221112_rjns_162ja100f

JA100F↓「なにわ」さん情報収集から帰還

20221112_rjns_163ja100f

20221112_rjns_164ja100f

20221112_rjns_165ja01fd

「おおたか」さんは東京へ帰投の模様

20221112_rjns_166ja01fd

JA01FD↑

20221112_rjns_167ja01fd

20221112_rjns_168ja100f

静岡空港での肝は、給油

20221112_rjns_169ja02fd

ファイアーアタッカー装備の「あたご」さん到着

20221112_rjns_170ja02fd

ちょっと草地にかかると、こんな状態発生

20221112_rjns_171ja02fd

JA02FD↓ AS365N3 京都市消防航空隊「あたご」

RJNS 120400Z VRB02KT 9999 FEW030 23/09 Q1022

20221112_rjns_172ja31kn

ファイアーアタッカーが続きます。

20221112_rjns_173ja31kn

JA31KN↓ AS365N3 埼玉県防災航空隊「あらかわ2」

20221112_rjns_174ja119c

JA119C↓ AS365N3 千葉市消防航空隊「おおとり1号」

20221112_rjns_175ja119c

20221112_rjns_176ja02kf

JA02KF↓ AS365N3 川崎市消防航空隊「そよかぜ2」

20221112_rjns_177ja298r

「つくば」さん救助訓練へ

20221112_rjns_178ja298r

JA298R↑

20221112_rjns_179as

ドーファンが6機も 壮観です。

20221112_rjns_180ja298r

場所は、消防学校の模様

20221112_rjns_181ja02kb

お騒がせの「KOBE2」さんも出発準備

20221112_rjns_182ja02kb

こちらも救助訓練で消防学校

20221112_rjns_183ja02kb

JA02KB↑

20221112_rjns_184ja90mt

「ひばり」さんも出発準備

20221112_rjns_185ja90mt

3機が救助訓練に参加

20221112_rjns_186ja90mt

JA90MT↑

20221112_rjns_187ja298r

JA298R↓ 早々と帰ってきた。

RJNS 120500Z 13006KT 100V170 9999 FEW030 23/10 Q1021

20221112_rjns_188ja298r

要救さんは、元気です。

20221112_rjns_189ja02kb

「KOBE2」さんも帰還

20221112_rjns_190ja02kb

20221112_rjns_191ja100f

「なにわ」さんは、これで一旦大阪に帰ります。

20221112_rjns_192ja01fj

青空にハイステーション

20221112_rjns_193ja90mt

「ひばり」さん着陸 なれど、スポットに行けず。

20221112_rjns_194ja100f

「なにわ」さんの参加は、今日だけ。大阪に帰られます。

20221112_rjns_195ja90mt

あんまりスムーズでない采配に、一旦誘導路でホールド

20221112_rjns_196ja100f

JA100F↑

20221112_rjns_197ja90mt

スポットに向かう誘導路が空いて・・

20221112_rjns_198ja90mt

定期便インバンドが迫っているので、急いで移動

20221112_rjns_199ja90mt

お疲れさまでした。

20221112_rjns_200ja119c

空中消火隊が続々出発準備に入ります。

20221112_rjns_201ja02fd

これから浜松に向かって、散水まつりの予定

20221112_rjns_202ja01fj

FDA184 RJOC-RJNS JA01FJ ERJ-170STD

20221112_rjns_203ja02fd

到着順に出発です。

20221112_rjns_204ja02fd

JA02FD↑

20221112_rjns_205ja02fd

20221112_rjns_206ja31kn

JA31KN↑

20221112_rjns_207ja31kn

20221112_rjns_208ja119c

20221112_rjns_209ja119c

JA119C↑

20221112_rjns_210ja119c

20221112_rjns_211ja02kf

JA02KF↑ ラストは川崎さん

20221112_rjns_212ja02kf

これにて展望台を離脱

20221112_rjns_21302kb

東展望台から 「つくば」さんが静浜に飛んで、残るは2機

RJNS 120600Z 14007KT 9999 FEW030 22/11 Q1021

探検隊で合流していたのですが、訓練会場下見してから静浜飛行場へ向かいます。

20221112_rjny_250ja02fd

JA02FD「あたご」

20221112_rjny_251ja90mt

JA90MT「ひばり」

20221112_rjny_252ja152y

JA152Y AW139 横浜市消防航空隊「はまちどり2」

RJNS 120700Z 19006KT 9999 FEW030 20/12 Q1021

20221112_rjny_253ja31kn

JA31KN↓「あらかわ2」

20221112_rjny_254ja31kn

20221112_rjny_255ja119c

JA119C↓「おおとり1号」

20221112_rjny_256ja119c

20221112_rjny_257ja119c

川崎さんが静岡空港を飛び立ったようですが、転戦の関係で、ここで離脱。

探検隊同志は、翌日の訓練がメインで参戦です。

 

| | コメント (0)

2006/04/30

空想出 静浜基地 2000/5/28

20000528_rjny_0120000528_rjny_0220000528_rjny_03GWですね。また5日からは春の航空祭シーズ 毎年、岩国にいってシッカリ日焼けして、いつもまわりから疑いの目で見られていました。今年は、チョットいけそうにありません。またその次は、静浜。昨年からT7の配置が始まって、今年はだいぶそろっているでしょう。このT3もまもなく退役する機種になりますね。それと、SUNNYさんのAirRockチームの始動も期待したいところ。いけるかどうかまだ、半々の今日このごろです。

左:T3列線越しにロックさんの11AR 中:編隊飛行のため一斉にタクシーアウト 左:綺麗にきまったビッグダイヤモンド

| | コメント (0) | トラックバック (0)

2005/09/11

雲紀行 静浜 2005/5/15

20050515_rjny_1120050515_rjny_1220050515_rjny_13新型練習機T7の配備が静浜基地にも始まった。最初の機体は防府から転属した914 さっそく名物JrにもT7が登場したよ!

左:バリバリのT3 中:T3Jr おっとT7Jrも一機 左:静浜T7

20050515_rjny_2120050515_rjny_2220050515_rjny_23T3をまとめて 第一号機501及び今年の記念塗装機

左:元気にローパス#501 中:歴代練習機をシンボルした#512 右:F2とC1に続く#529 反対側はUH60とF15

20050515_rjny_3120050515_rjny_3220050515_rjny_33今年の静浜航空祭は悲しいニュースが続きました。一つは開催直前の静岡県警航空隊ヘリの墜落 いつもデモを披露していましたが、今年は県警エプロンもひっそりと もう一つは、今年の航空祭シーズンスタートとなる予定であったAirRockのロック岩崎さん 管制塔庁舎には、密かにロックさんの在りし姿が滑走路が見える場所に飾られていました。

左:ロックさんの遺影 中:ロックさんも練習したであろうT6テキサン 右:6WGから飛来したF15 303SQと306SQから一機づつの編隊でした

20050515_rjny_4120050515_rjny_4220050515_rjny_43前日のホビーショウと同じく5機による変則的な展示飛行 普段見れない飛行が見れました。

| | コメント (0) | トラックバック (0)

その他のカテゴリー

BI Boading record aircraft Boading record ship FlightTracking lighthouse NAVAIDS NAVY RJNT LOG SKY MASSAGE US NAVY USMC うみ おか そら てつ アクシデント エアロック チーム室屋 ヘリポート 三沢飛行場 上五島空港 下地島空港 下総飛行場 与論空港 与那国空港 中標津空港 中部国際空港 久米島空港 五島福江空港 仙台空港 伊江島空港 但馬空港 佐賀空港 入間飛行場 八尾空港 八戸飛行場 出雲空港 函館空港 利尻空港 北九州空港 北大東空港 十勝飛行場 千歳飛行場 南大東空港 博物館 厚木飛行場 名古屋飛行場 喜界空港 嘉手納飛行場 場外 壱岐空港 多良間空港 大分空港 大村飛行場 大湊飛行場 大阪国際空港 大館能代空港 天草空港 奄美空港 奥尻空港 宇部山口空港 宇都宮飛行場 宮古空港 宮崎空港 富山空港 対馬空港 小松島飛行場 小松飛行場 屋久島空港 山形空港 岐阜飛行場 岡南飛行場 岡山空港 岩国飛行場 帯広空港 広島空港 広島西飛行場 庄内空港 徳之島空港 徳島飛行場 慶良間空港 成田国際空港 新島空港 新潟空港 新田原飛行場 旭川空港 旭川飛行場 明野飛行場 普天間飛行場 木更津飛行場 札幌飛行場 東京国際空港 松山空港 松島飛行場 松本空港 枕崎飛行場 横田飛行場 沖永良部空港 波照間空港 浜松飛行場 海上保安庁 海上自衛隊 海外 熊本空港 百里飛行場 相馬原飛行場 石垣空港 石見空港 礼文空港 神戸空港 神津島空港 福井空港 福岡空港 福島空港 秋田空港 稚内空港 種子島空港 空撮 立川飛行場 竜ヶ崎飛行場 築城飛行場 粟国空港 美保飛行場 能登空港 舞鶴飛行場 航空自衛隊 芦屋飛行場 花巻空港 調布飛行場 警務消防 那覇空港 釧路空港 長崎空港 関西国際空港 陸上自衛隊 隠岐空港 霞ヶ浦飛行場 霞目飛行場 青森空港 静岡空港 静浜飛行場 飛行場跡 飛行船 鹿児島空港 鹿屋飛行場